Time;durP1;ratioP1;P1;durP2;ratioP2;P2;SDS_P1;SDS_P2;PMS_P1;PMS_P2;Temp;Humidity;BMP_temperature;BMP_pressure;BME280_temperature;BME280_humidity;BME280_pressure;Samples;Min_cycle;Max_cycle;Signal;HPM_P1;HPM_P2
2023/02/09 00:01:12;;;;;;;14.70;6.13;;;-1.60;99.90;;;;;;5094348;28;20105;-86
2023/02/09 00:03:40;;;;;;;14.68;5.90;;;-1.50;99.90;;;;;;5094501;28;20039;-86
2023/02/09 00:06:10;;;;;;;10.75;5.00;;;-1.60;99.90;;;;;;5095785;28;20044;-86
2023/02/09 00:08:37;;;;;;;10.45;5.53;;;-1.20;99.90;;;;;;5094698;28;20112;-86
2023/02/09 00:11:18;;;;;;;13.00;5.68;;;-1.60;99.90;;;;;;5078194;28;20043;-86
2023/02/09 00:13:45;;;;;;;11.70;5.35;;;-1.60;99.90;;;;;;5094706;28;20039;-86
2023/02/09 00:16:12;;;;;;;13.02;5.70;;;-1.60;99.90;;;;;;5078120;28;20066;-86
2023/02/09 00:18:39;;;;;;;10.00;5.47;;;-1.60;99.90;;;;;;5077417;28;20047;-86
2023/02/09 00:21:09;;;;;;;12.88;6.10;;;-1.60;99.90;;;;;;5077350;28;20484;-86
2023/02/09 00:23:39;;;;;;;10.98;4.90;;;-0.90;99.90;;;;;;5111415;28;20080;-86
2023/02/09 00:26:09;;;;;;;10.77;5.22;;;-1.60;99.90;;;;;;5094815;28;20036;-86
2023/02/09 00:28:36;;;;;;;12.52;5.78;;;-1.50;99.90;;;;;;5094332;28;20040;-86
2023/02/09 00:31:11;;;;;;;12.90;5.20;;;-0.70;99.90;;;;;;5077747;28;20127;-86
2023/02/09 00:33:38;;;;;;;11.05;5.97;;;-1.50;99.90;;;;;;5092330;28;20036;-86
2023/02/09 00:36:11;;;;;;;15.50;5.82;;;-1.50;99.90;;;;;;5109646;28;20070;-85
2023/02/09 00:38:39;;;;;;;12.45;5.57;;;-1.60;99.90;;;;;;5113838;28;20081;-86
2023/02/09 00:41:06;;;;;;;10.95;5.35;;;-1.50;99.90;;;;;;5096967;28;20050;-86
2023/02/09 00:43:33;;;;;;;13.85;6.15;;;-1.60;99.90;;;;;;5131432;28;20035;-86
2023/02/09 00:46:00;;;;;;;10.90;5.72;;;-1.60;99.90;;;;;;5110593;28;20140;-86
2023/02/09 00:48:27;;;;;;;12.23;5.80;;;-1.60;99.90;;;;;;5094103;28;20119;-86
2023/02/09 00:50:54;;;;;;;9.05;4.75;;;-1.00;99.90;;;;;;5110107;28;20044;-86
2023/02/09 00:53:21;;;;;;;12.57;5.68;;;-1.50;99.90;;;;;;5093870;28;20568;-86
2023/02/09 00:55:48;;;;;;;12.95;5.90;;;-1.70;99.90;;;;;;5094072;28;20040;-86
2023/02/09 00:58:16;;;;;;;10.60;5.18;;;-1.70;99.90;;;;;;5127321;28;20043;-86
2023/02/09 01:00:42;;;;;;;13.13;5.38;;;-1.70;99.90;;;;;;5110362;28;20040;-86
2023/02/09 01:03:10;;;;;;;14.50;5.50;;;-1.70;99.90;;;;;;5093823;28;20079;-86
2023/02/09 01:05:41;;;;;;;11.38;5.30;;;-1.00;99.90;;;;;;5093656;28;20036;-86
2023/02/09 01:08:08;;;;;;;13.43;5.43;;;-1.70;99.90;;;;;;5094044;28;20143;-85
2023/02/09 01:10:38;;;;;;;11.32;4.70;;;-1.10;99.90;;;;;;5093303;28;20500;-86
2023/02/09 01:13:05;;;;;;;12.20;6.03;;;-1.60;99.90;;;;;;5091009;28;20082;-86
2023/02/09 01:15:32;;;;;;;12.38;5.13;;;-1.70;99.90;;;;;;5086243;28;20498;-86
2023/02/09 01:17:58;;;;;;;11.82;5.30;;;-0.90;99.90;;;;;;5070022;28;20076;-86
2023/02/09 01:20:26;;;;;;;13.68;5.05;;;-1.70;99.90;;;;;;5053265;28;20098;-86
2023/02/09 01:22:52;;;;;;;11.48;5.82;;;-0.50;99.90;;;;;;5053017;28;20080;-87
2023/02/09 01:25:19;;;;;;;10.15;4.95;;;-1.30;99.90;;;;;;5086135;28;20461;-86
2023/02/09 01:27:46;;;;;;;11.85;5.43;;;-1.60;99.90;;;;;;5052710;28;20033;-86
2023/02/09 01:30:13;;;;;;;12.52;5.40;;;-1.20;99.90;;;;;;5037532;28;20374;-86
2023/02/09 01:32:40;;;;;;;11.45;5.00;;;-1.70;99.90;;;;;;5053308;28;20076;-86
2023/02/09 01:35:07;;;;;;;12.25;5.22;;;-0.80;99.90;;;;;;5070069;28;20504;-86
2023/02/09 01:37:34;;;;;;;11.73;5.03;;;-1.60;99.90;;;;;;5053274;28;20509;-86
2023/02/09 01:40:03;;;;;;;11.63;4.68;;;-1.60;99.90;;;;;;5053450;28;20037;-86
2023/02/09 01:42:29;;;;;;;11.75;4.68;;;-1.70;99.90;;;;;;5037256;28;20052;-87
2023/02/09 01:45:20;;;;;;;11.35;5.07;;;-1.20;99.90;;;;;;5042774;28;20056;-86
2023/02/09 01:47:57;;;;;;;12.98;4.90;;;-1.70;99.90;;;;;;5066206;28;20084;-87
2023/02/09 01:50:25;;;;;;;12.75;4.97;;;-1.50;99.90;;;;;;5065986;28;20046;-86
2023/02/09 01:52:53;;;;;;;10.23;4.45;;;-1.70;99.90;;;;;;5065358;28;20048;-86
2023/02/09 01:55:24;;;;;;;11.18;4.82;;;-1.50;99.90;;;;;;5049482;28;20085;-86
2023/02/09 01:58:00;;;;;;;12.77;4.85;;;-1.30;99.90;;;;;;5065602;28;20045;-86
2023/02/09 02:00:27;;;;;;;10.68;4.80;;;-1.60;99.90;;;;;;5065843;28;20498;-86
2023/02/09 02:03:04;;;;;;;11.82;4.65;;;-1.50;99.90;;;;;;5032795;28;20034;-86
2023/02/09 02:05:35;;;;;;;11.80;4.65;;;-1.60;99.90;;;;;;5049637;28;20029;-86
2023/02/09 02:08:07;;;;;;;12.60;4.65;;;-1.60;99.90;;;;;;5065601;28;20095;-86
2023/02/09 02:10:34;;;;;;;9.35;3.92;;;-1.50;99.90;;;;;;5049203;28;20041;-86
2023/02/09 02:13:02;;;;;;;10.95;4.18;;;-0.50;99.90;;;;;;5032600;28;20095;-86
2023/02/09 02:15:39;;;;;;;9.80;4.13;;;-1.40;99.90;;;;;;5017398;28;20092;-86
2023/02/09 02:18:19;;;;;;;8.00;4.05;;;-0.80;99.90;;;;;;5049153;28;20086;-86
2023/02/09 02:21:01;;;;;;;9.02;4.30;;;-1.30;99.90;;;;;;5048835;28;20038;-86
2023/02/09 02:23:47;;;;;;;8.55;3.80;;;-1.30;99.90;;;;;;5049559;28;20041;-86
2023/02/09 02:26:32;;;;;;;11.43;4.03;;;-1.30;99.90;;;;;;5064332;28;20088;-86
2023/02/09 02:29:07;;;;;;;9.30;4.07;;;-1.20;99.90;;;;;;5069141;28;20041;-86
2023/02/09 02:31:53;;;;;;;10.23;4.45;;;-1.20;99.90;;;;;;5069000;28;20044;-87
2023/02/09 02:34:33;;;;;;;10.13;4.03;;;-1.20;99.90;;;;;;5069447;28;20114;-86
2023/02/09 02:37:13;;;;;;;10.18;4.35;;;-1.20;99.90;;;;;;5069327;28;20071;-87
2023/02/09 02:39:58;;;;;;;11.02;4.15;;;-1.10;99.90;;;;;;5086427;28;20710;-87
2023/02/09 02:42:48;;;;;;;9.00;3.88;;;-1.10;99.90;;;;;;5085709;28;20048;-86
2023/02/09 02:45:30;;;;;;;9.15;4.18;;;-0.20;99.90;;;;;;5073631;28;20125;-86
2023/02/09 02:48:17;;;;;;;10.30;4.18;;;-1.10;99.90;;;;;;5072525;28;20042;-86
2023/02/09 02:50:50;;;;;;;9.95;3.95;;;-0.80;99.90;;;;;;5072758;28;20702;-87
2023/02/09 02:53:20;;;;;;;12.25;4.07;;;-1.10;99.90;;;;;;5072457;28;20040;-86
2023/02/09 02:55:49;;;;;;;10.82;3.92;;;-1.00;99.90;;;;;;5078120;28;20039;-84
2023/02/09 02:58:26;;;;;;;9.50;4.20;;;-1.00;99.90;;;;;;5076076;28;20084;-87
2023/02/09 03:00:57;;;;;;;7.38;3.58;;;-1.00;99.90;;;;;;5092333;28;20040;-86
2023/02/09 03:03:34;;;;;;;8.85;3.92;;;-0.90;99.90;;;;;;5092692;28;20036;-86
2023/02/09 03:06:04;;;;;;;13.07;4.18;;;-0.90;99.90;;;;;;5111694;28;20097;-86
2023/02/09 03:08:55;;;;;;;7.97;3.63;;;-0.90;99.90;;;;;;5096620;28;20158;-87
2023/02/09 03:11:26;;;;;;;8.65;3.50;;;-0.90;99.90;;;;;;5096558;28;20036;-86
2023/02/09 03:14:40;;;;;;;9.15;3.95;;;-0.90;99.90;;;;;;5096594;28;20729;-86
2023/02/09 03:17:21;;;;;;;11.52;3.95;;;-0.90;99.90;;;;;;5112239;28;20434;-87
2023/02/09 03:19:59;;;;;;;9.15;3.92;;;-0.90;99.90;;;;;;5096079;28;20085;-86
2023/02/09 03:22:35;;;;;;;11.57;3.92;;;-0.80;99.90;;;;;;5095639;28;20086;-86
2023/02/09 03:25:10;;;;;;;9.85;4.00;;;-0.80;99.90;;;;;;5095851;28;20040;-86
2023/02/09 03:27:46;;;;;;;11.97;3.67;;;-0.80;99.90;;;;;;5081171;28;20047;-86
2023/02/09 03:30:15;;;;;;;8.65;4.18;;;-0.80;99.90;;;;;;5075690;28;20275;-86
2023/02/09 03:32:48;;;;;;;10.73;4.03;;;-0.80;99.90;;;;;;5059332;28;20040;-87
2023/02/09 03:35:16;;;;;;;9.30;3.90;;;-0.80;99.90;;;;;;5091906;28;20044;-86
2023/02/09 03:37:43;;;;;;;9.70;3.85;;;-0.10;99.90;;;;;;5088726;28;20455;-86
2023/02/09 03:40:10;;;;;;;9.32;4.35;;;-0.50;99.90;;;;;;5095758;28;20126;-86
2023/02/09 03:42:37;;;;;;;9.45;3.50;;;-0.80;99.90;;;;;;5095207;28;20148;-87
2023/02/09 03:45:06;;;;;;;9.65;4.35;;;-0.80;99.90;;;;;;5067279;28;20048;-86
2023/02/09 03:47:34;;;;;;;11.32;4.25;;;-0.80;99.90;;;;;;5062382;28;20037;-86
2023/02/09 03:50:00;;;;;;;8.65;4.03;;;0.50;99.90;;;;;;5068275;28;20098;-86
2023/02/09 03:52:29;;;;;;;9.80;4.13;;;-0.80;99.90;;;;;;5068539;28;20041;-87
2023/02/09 03:54:56;;;;;;;10.27;3.58;;;-1.60;99.90;;;;;;5019753;28;20498;-86
2023/02/09 03:57:23;;;;;;;9.48;3.90;;;0.10;99.90;;;;;;5019778;28;20044;-86
2023/02/09 03:59:49;;;;;;;10.18;3.85;;;-0.80;99.90;;;;;;5035470;28;20080;-87
2023/02/09 04:02:16;;;;;;;7.50;3.75;;;-0.80;99.90;;;;;;5050999;28;20045;-86
2023/02/09 04:04:43;;;;;;;7.72;3.70;;;0.20;99.90;;;;;;5052247;28;20045;-86
2023/02/09 04:07:10;;;;;;;10.43;4.20;;;-0.80;99.90;;;;;;5019147;28;20052;-86
2023/02/09 04:09:37;;;;;;;10.90;4.40;;;-0.80;99.90;;;;;;5035240;28;20388;-86
2023/02/09 04:12:05;;;;;;;10.57;4.70;;;0.00;99.90;;;;;;5051057;28;20124;-87
2023/02/09 04:14:31;;;;;;;8.18;4.03;;;-0.80;99.90;;;;;;5034804;28;20050;-86
2023/02/09 04:16:58;;;;;;;9.38;3.95;;;-0.80;99.90;;;;;;5018118;28;20065;-86
2023/02/09 04:19:25;;;;;;;9.63;4.10;;;0.30;99.90;;;;;;5029457;28;20041;-86
2023/02/09 04:21:51;;;;;;;10.57;3.72;;;-0.20;99.90;;;;;;5051072;28;20102;-86
2023/02/09 04:24:20;;;;;;;10.52;4.60;;;0.10;99.90;;;;;;5050663;28;20092;-86
2023/02/09 04:26:46;;;;;;;9.57;3.85;;;-0.30;99.90;;;;;;5050910;28;20108;-86
2023/02/09 04:29:13;;;;;;;12.00;4.53;;;-0.20;99.90;;;;;;5044940;28;20065;-86
2023/02/09 04:31:40;;;;;;;13.60;3.95;;;-0.90;99.90;;;;;;5051056;28;20041;-86
2023/02/09 04:34:06;;;;;;;9.30;4.28;;;0.20;99.90;;;;;;5034387;28;20095;-87
2023/02/09 04:36:33;;;;;;;13.40;4.32;;;-0.90;99.90;;;;;;5050760;28;20045;-86
2023/02/09 04:39:00;;;;;;;10.20;4.13;;;-0.90;99.90;;;;;;5036623;28;20052;-83
2023/02/09 04:41:27;;;;;;;9.18;4.07;;;-0.90;99.90;;;;;;5046079;28;20087;-86
2023/02/09 04:43:53;;;;;;;11.60;4.63;;;0.30;99.90;;;;;;5034082;28;20068;-86
2023/02/09 04:46:20;;;;;;;9.40;4.28;;;-1.00;99.90;;;;;;5033598;28;20050;-86
2023/02/09 04:48:47;;;;;;;8.90;4.00;;;-1.00;99.90;;;;;;5034975;28;20048;-86
2023/02/09 04:51:14;;;;;;;11.73;4.40;;;-1.00;99.90;;;;;;5069949;28;20041;-86
2023/02/09 04:53:41;;;;;;;7.45;3.88;;;-1.00;99.90;;;;;;5053696;28;20132;-86
2023/02/09 04:56:11;;;;;;;10.18;4.13;;;-1.00;99.90;;;;;;5053401;28;20129;-86
2023/02/09 05:01:23;;;;;;;13.02;3.80;;;-1.10;99.90;;;;;;5055162;28;20076;-86
2023/02/09 05:03:51;;;;;;;10.80;4.60;;;-1.10;99.90;;;;;;5050201;28;20045;-86
2023/02/09 05:06:18;;;;;;;8.25;3.95;;;-1.20;99.90;;;;;;5033433;28;20422;-85
2023/02/09 05:08:45;;;;;;;12.18;4.78;;;-1.20;99.90;;;;;;5050333;28;20041;-86
2023/02/09 05:11:12;;;;;;;12.27;4.32;;;-0.90;99.90;;;;;;5062302;28;20094;-85
2023/02/09 05:13:40;;;;;;;8.15;4.30;;;-1.30;99.90;;;;;;5062717;28;20049;-87
2023/02/09 05:16:10;;;;;;;10.32;3.95;;;-1.30;99.90;;;;;;5049666;28;20095;-85
2023/02/09 05:18:37;;;;;;;11.65;4.43;;;-1.30;99.90;;;;;;5066620;28;20053;-86
2023/02/09 05:21:04;;;;;;;10.13;4.30;;;-1.30;99.90;;;;;;5033297;28;20409;-85
2023/02/09 05:23:31;;;;;;;10.07;4.55;;;-1.30;99.90;;;;;;5033419;28;20040;-86
2023/02/09 05:25:58;;;;;;;10.85;3.75;;;-1.30;99.90;;;;;;5066265;28;20511;-86
2023/02/09 05:28:25;;;;;;;9.65;4.40;;;-1.30;99.90;;;;;;5032630;28;20033;-86
2023/02/09 05:30:55;;;;;;;9.02;4.07;;;-1.30;99.90;;;;;;5055319;28;20033;-86
2023/02/09 05:33:24;;;;;;;12.30;5.00;;;-1.30;99.90;;;;;;5050054;28;20094;-85
2023/02/09 05:35:51;;;;;;;10.95;4.53;;;-1.30;99.90;;;;;;5063740;28;20037;-86
2023/02/09 05:38:18;;;;;;;10.02;3.83;;;-0.60;99.90;;;;;;5065084;28;20054;-86
2023/02/09 05:40:45;;;;;;;11.18;4.32;;;-0.50;99.90;;;;;;5040782;28;20119;-86
2023/02/09 05:43:12;;;;;;;9.23;4.28;;;-1.90;99.90;;;;;;5074515;28;20041;-86
2023/02/09 05:45:38;;;;;;;10.73;4.50;;;-0.40;99.90;;;;;;5053105;28;20527;-86
2023/02/09 05:48:05;;;;;;;9.95;4.53;;;-1.00;99.90;;;;;;5036660;28;20040;-86
2023/02/09 05:50:32;;;;;;;9.50;4.28;;;-0.70;99.90;;;;;;5052750;28;20044;-86
2023/02/09 05:52:59;;;;;;;11.32;4.28;;;-1.30;99.90;;;;;;5036348;28;20116;-86
2023/02/09 05:55:26;;;;;;;10.75;4.72;;;-1.40;99.90;;;;;;5033128;28;20037;-86
2023/02/09 05:57:53;;;;;;;10.93;5.05;;;-0.40;99.90;;;;;;5033174;28;20143;-86
2023/02/09 06:00:20;;;;;;;9.55;4.68;;;-1.40;99.90;;;;;;5016830;28;20132;-86
2023/02/09 06:02:47;;;;;;;9.05;4.25;;;-1.40;99.90;;;;;;5039870;28;20034;-86
2023/02/09 06:05:13;;;;;;;10.07;4.55;;;-1.40;99.90;;;;;;5049029;28;20091;-85
2023/02/09 06:07:40;;;;;;;10.50;4.00;;;-1.40;99.90;;;;;;5049159;28;20048;-86
2023/02/09 06:10:07;;;;;;;9.45;3.88;;;-1.30;99.90;;;;;;5049394;28;20041;-85
2023/02/09 06:12:34;;;;;;;12.65;4.45;;;-1.30;99.90;;;;;;5063057;28;20121;-86
2023/02/09 06:15:01;;;;;;;8.23;4.03;;;-1.30;99.90;;;;;;5033183;28;20076;-86
2023/02/09 06:17:27;;;;;;;9.93;4.47;;;-1.30;99.90;;;;;;5016253;28;20045;-86
2023/02/09 06:19:54;;;;;;;8.98;4.05;;;-0.30;99.90;;;;;;5016438;28;20049;-85
2023/02/09 06:22:21;;;;;;;14.27;4.85;;;-1.40;99.90;;;;;;5033197;28;20103;-86
2023/02/09 06:24:47;;;;;;;12.65;3.90;;;-1.40;99.90;;;;;;5085698;28;20091;-85
2023/02/09 06:27:14;;;;;;;12.93;4.30;;;-1.40;99.90;;;;;;5036765;28;20044;-86
2023/02/09 06:29:41;;;;;;;9.43;3.78;;;-0.90;99.90;;;;;;5052712;28;20103;-86
2023/02/09 06:32:07;;;;;;;10.65;4.63;;;-1.40;99.90;;;;;;5036744;28;20047;-86
2023/02/09 06:34:34;;;;;;;10.30;4.70;;;-1.30;99.90;;;;;;5068944;28;20044;-85
2023/02/09 06:37:01;;;;;;;10.38;4.30;;;-1.30;99.90;;;;;;5052449;28;20051;-86
2023/02/09 06:39:28;;;;;;;13.93;4.72;;;-1.40;99.90;;;;;;5036673;28;20048;-86
2023/02/09 06:41:55;;;;;;;8.65;3.90;;;-1.40;99.90;;;;;;5057722;28;20045;-86
2023/02/09 06:44:22;;;;;;;14.60;4.65;;;-0.80;99.90;;;;;;5042699;28;20090;-86
2023/02/09 06:46:48;;;;;;;9.13;4.22;;;-1.30;99.90;;;;;;5080157;28;20123;-85
2023/02/09 06:49:15;;;;;;;9.05;4.30;;;-1.30;99.90;;;;;;5079663;28;20098;-86
2023/02/09 06:51:42;;;;;;;12.93;4.68;;;-1.40;99.90;;;;;;5095929;28;20058;-86
2023/02/09 06:54:08;;;;;;;9.57;4.65;;;-0.40;99.90;;;;;;5090079;28;20040;-86
2023/02/09 06:56:35;;;;;;;12.48;4.85;;;-1.40;99.90;;;;;;5093978;28;20061;-86
2023/02/09 06:59:02;;;;;;;8.43;4.32;;;-1.20;99.90;;;;;;5079770;28;20036;-86
2023/02/09 07:01:29;;;;;;;12.95;4.75;;;-1.40;99.90;;;;;;5078825;28;20073;-86
2023/02/09 07:03:55;;;;;;;10.25;4.30;;;-1.40;99.90;;;;;;5095392;28;20036;-86
2023/02/09 07:06:22;;;;;;;7.72;3.55;;;-1.40;99.90;;;;;;5042423;28;20045;-85
2023/02/09 07:08:49;;;;;;;7.10;2.80;;;-1.40;99.90;;;;;;5058775;28;20035;-85
2023/02/09 07:11:17;;;;;;;5.20;2.38;;;-1.40;99.90;;;;;;5075115;28;20090;-86
2023/02/09 07:13:45;;;;;;;6.32;1.95;;;-1.40;99.90;;;;;;5094553;28;20046;-86
2023/02/09 07:16:12;;;;;;;5.80;2.58;;;-1.40;99.90;;;;;;5069850;28;20048;-86
2023/02/09 07:18:39;;;;;;;6.32;2.75;;;-1.30;99.90;;;;;;5068189;28;20523;-86
2023/02/09 07:21:17;;;;;;;4.75;2.50;;;-0.90;99.90;;;;;;5087574;28;20079;-86
2023/02/09 07:23:45;;;;;;;7.50;3.05;;;-1.20;99.90;;;;;;5092138;28;20098;-86
2023/02/09 07:26:15;;;;;;;6.40;2.67;;;-0.60;99.90;;;;;;5088228;28;20115;-88
2023/02/09 07:28:43;;;;;;;4.18;2.22;;;-1.30;99.90;;;;;;5087384;28;20036;-87
2023/02/09 07:31:11;;;;;;;5.05;2.30;;;-1.30;99.90;;;;;;5096247;28;20508;-87
2023/02/09 07:33:38;;;;;;;6.85;3.08;;;-0.20;99.90;;;;;;5092625;28;20040;-88
2023/02/09 07:36:07;;;;;;;5.93;2.72;;;-1.30;99.90;;;;;;5085158;28;20431;-86
2023/02/09 07:38:34;;;;;;;3.40;1.98;;;-1.20;99.90;;;;;;5084484;28;20047;-86
2023/02/09 07:41:03;;;;;;;5.43;2.80;;;-1.20;99.90;;;;;;5068627;28;20049;-86
2023/02/09 07:43:30;;;;;;;4.70;2.15;;;-1.20;99.90;;;;;;5066260;28;20119;-87
2023/02/09 07:46:03;;;;;;;6.15;2.53;;;-0.90;99.90;;;;;;5045543;28;20057;-87
2023/02/09 07:48:30;;;;;;;8.00;3.13;;;-1.20;99.90;;;;;;5091699;28;20037;-87
2023/02/09 07:50:57;;;;;;;11.68;3.50;;;-0.50;99.90;;;;;;5074737;28;20826;-87
2023/02/09 07:53:24;;;;;;;5.93;2.55;;;-1.10;99.90;;;;;;5107078;28;20110;-88
2023/02/09 07:55:51;;;;;;;4.90;2.80;;;-1.10;99.90;;;;;;5085998;28;20059;-88
2023/02/09 07:58:19;;;;;;;5.20;2.97;;;-1.10;99.90;;;;;;5074700;28;20404;-86
2023/02/09 08:00:49;;;;;;;12.73;2.75;;;-1.10;99.90;;;;;;5093677;28;20063;-86
2023/02/09 08:03:19;;;;;;;4.32;2.63;;;-1.00;99.90;;;;;;5091115;28;20037;-85
2023/02/09 08:05:54;;;;;;;6.30;2.72;;;-0.40;99.90;;;;;;5088714;28;20055;-85
2023/02/09 08:08:21;;;;;;;7.15;2.17;;;-1.00;99.90;;;;;;5083482;28;20377;-86
2023/02/09 08:10:48;;;;;;;6.90;3.38;;;-0.90;99.90;;;;;;5077666;28;20043;-85
2023/02/09 08:13:15;;;;;;;8.77;3.28;;;-0.90;99.90;;;;;;5075231;28;20054;-85
2023/02/09 08:15:46;;;;;;;6.95;2.67;;;-0.80;99.90;;;;;;5083468;28;20035;-85
2023/02/09 08:18:18;;;;;;;4.75;2.33;;;-0.20;99.90;;;;;;5113639;28;20042;-85
2023/02/09 08:20:47;;;;;;;6.82;3.28;;;-0.80;99.90;;;;;;5092662;28;20446;-85
2023/02/09 08:23:22;;;;;;;6.03;2.67;;;-0.70;99.90;;;;;;5082659;28;20041;-86
2023/02/09 08:25:50;;;;;;;7.28;2.72;;;0.00;99.90;;;;;;5103255;28;20129;-85
2023/02/09 08:28:18;;;;;;;5.40;2.58;;;0.40;99.90;;;;;;5079251;28;20040;-86
2023/02/09 08:30:47;;;;;;;6.55;2.53;;;-0.30;99.90;;;;;;5079350;28;20032;-86
2023/02/09 08:33:14;;;;;;;4.03;2.45;;;-0.30;99.90;;;;;;5086977;28;20032;-86
2023/02/09 08:35:41;;;;;;;4.60;1.88;;;-0.50;99.90;;;;;;5048561;28;20115;-86
2023/02/09 08:38:09;;;;;;;6.88;3.00;;;-0.50;99.90;;;;;;5071035;28;20064;-86
2023/02/09 08:40:40;;;;;;;8.55;2.95;;;-0.40;99.90;;;;;;5067331;28;20068;-85
2023/02/09 08:43:07;;;;;;;6.15;2.90;;;-0.40;99.90;;;;;;5060325;28;20043;-86
2023/02/09 08:45:36;;;;;;;5.57;3.42;;;-0.20;99.90;;;;;;5064570;28;20056;-86
2023/02/09 08:48:05;;;;;;;8.73;3.58;;;-0.10;99.90;;;;;;5082634;28;20033;-86
2023/02/09 08:50:32;;;;;;;4.60;2.30;;;-0.20;99.90;;;;;;5076877;28;20897;-86
2023/02/09 08:53:01;;;;;;;10.05;3.17;;;-0.10;99.90;;;;;;5065526;28;20079;-85
2023/02/09 08:55:30;;;;;;;7.35;3.35;;;-0.10;99.90;;;;;;5040683;28;20554;-85
2023/02/09 08:57:56;;;;;;;7.10;2.50;;;-0.10;99.90;;;;;;5056681;28;20079;-85
2023/02/09 09:00:23;;;;;;;7.13;2.53;;;0.00;99.90;;;;;;5056223;28;20080;-85
2023/02/09 09:02:50;;;;;;;4.85;2.85;;;0.00;99.90;;;;;;5054706;28;20504;-85
2023/02/09 09:05:17;;;;;;;8.10;2.70;;;0.10;99.90;;;;;;5068092;28;20043;-86
2023/02/09 09:07:43;;;;;;;7.65;2.70;;;0.10;99.90;;;;;;5073167;28;20154;-84
2023/02/09 09:10:10;;;;;;;5.22;2.40;;;1.00;99.90;;;;;;5072986;28;20067;-85
2023/02/09 09:12:37;;;;;;;11.63;3.38;;;0.70;99.90;;;;;;5073452;28;20072;-82
2023/02/09 09:15:04;;;;;;;7.93;2.70;;;0.30;99.90;;;;;;5090824;28;20496;-83
2023/02/09 09:17:31;;;;;;;7.57;3.05;;;0.30;99.90;;;;;;5075567;28;20036;-83
2023/02/09 09:19:58;;;;;;;8.13;2.45;;;0.40;99.90;;;;;;5092402;28;20036;-82
2023/02/09 09:22:24;;;;;;;5.13;2.45;;;0.40;99.90;;;;;;5070608;28;20047;-79
2023/02/09 09:24:54;;;;;;;6.18;2.80;;;1.00;99.90;;;;;;5085131;28;20036;-87
2023/02/09 09:27:21;;;;;;;6.97;2.60;;;0.50;99.90;;;;;;5057757;28;20036;-87
2023/02/09 09:29:48;;;;;;;8.70;3.63;;;0.70;99.90;;;;;;5072873;28;20097;-87
2023/02/09 09:32:14;;;;;;;10.70;4.60;;;0.60;99.90;;;;;;5072885;28;20127;-86
2023/02/09 09:34:41;;;;;;;8.57;3.58;;;0.60;99.90;;;;;;5055989;28;20083;-86
2023/02/09 09:37:08;;;;;;;6.95;3.10;;;0.60;99.90;;;;;;5056600;28;20047;-87
2023/02/09 09:39:35;;;;;;;6.88;3.25;;;0.70;99.90;;;;;;5061553;28;20048;-87
2023/02/09 09:42:04;;;;;;;8.55;3.60;;;0.70;99.90;;;;;;5055705;28;20087;-87
2023/02/09 09:44:39;;;;;;;7.63;2.60;;;0.80;99.90;;;;;;5073086;28;20080;-86
2023/02/09 09:47:13;;;;;;;6.90;3.53;;;0.80;99.90;;;;;;5089519;28;20090;-87
2023/02/09 09:49:40;;;;;;;7.03;3.22;;;0.90;99.90;;;;;;5088915;28;20051;-87
2023/02/09 09:52:22;;;;;;;6.43;2.85;;;1.00;99.90;;;;;;5056717;28;20481;-85
2023/02/09 09:54:49;;;;;;;4.88;2.55;;;1.00;99.90;;;;;;5088840;28;20416;-86
2023/02/09 09:57:25;;;;;;;6.15;2.38;;;1.70;99.90;;;;;;5073432;28;20044;-86
2023/02/09 09:59:53;;;;;;;5.47;2.38;;;1.90;99.90;;;;;;5088850;28;20508;-87
2023/02/09 10:02:23;;;;;;;6.82;2.75;;;1.20;99.90;;;;;;5088903;28;20041;-87
2023/02/09 10:04:50;;;;;;;7.10;3.88;;;2.10;99.90;;;;;;5092588;28;20430;-87
2023/02/09 10:07:20;;;;;;;8.93;4.13;;;1.30;99.90;;;;;;5072249;28;20032;-86
2023/02/09 10:10:12;;;;;;;6.60;3.20;;;1.40;99.90;;;;;;5072568;28;20123;-86
2023/02/09 10:12:47;;;;;;;7.90;3.28;;;1.50;99.90;;;;;;5072232;28;20044;-85
2023/02/09 10:15:23;;;;;;;9.90;3.42;;;1.50;99.90;;;;;;5093810;28;20080;-86
2023/02/09 10:17:50;;;;;;;;;;;2.20;99.90;;;;;;5076921;28;20059;-85
2023/02/09 10:20:17;;;;;;;6.40;3.00;;;1.70;99.90;;;;;;5093482;28;19987;-87
2023/02/09 10:22:44;;;;;;;5.75;2.88;;;1.70;99.90;;;;;;5059828;28;20036;-85
2023/02/09 10:25:46;;;;;;;10.90;2.95;;;1.80;99.90;;;;;;5077180;28;20032;-86
2023/02/09 10:28:26;;;;;;;11.23;3.20;;;2.10;99.90;;;;;;4996116;28;20042;-85
2023/02/09 10:30:55;;;;;;;7.40;2.33;;;2.60;99.90;;;;;;5066393;28;20080;-86
2023/02/09 10:33:21;;;;;;;7.05;3.50;;;2.00;99.90;;;;;;5059541;28;20119;-86
2023/02/09 10:35:52;;;;;;;6.65;2.60;;;2.00;99.90;;;;;;5044756;28;20120;-87
2023/02/09 10:38:22;;;;;;;6.88;3.92;;;2.00;99.90;;;;;;5095776;28;20039;-86
2023/02/09 10:40:50;;;;;;;6.82;2.90;;;2.10;99.90;;;;;;5096161;28;20032;-86
2023/02/09 10:43:27;;;;;;;5.57;3.00;;;2.10;99.90;;;;;;5096127;28;20403;-86
2023/02/09 10:45:57;;;;;;;10.38;3.55;;;2.10;99.90;;;;;;5095374;28;20048;-86
2023/02/09 10:48:26;;;;;;;12.18;3.40;;;2.50;99.90;;;;;;5095925;28;20492;-86
2023/02/09 10:51:11;;;;;;;7.93;3.92;;;2.20;99.90;;;;;;5096047;28;20129;-86
2023/02/09 10:53:56;;;;;;;5.90;2.78;;;2.20;99.90;;;;;;5112646;28;20035;-86
2023/02/09 10:56:42;;;;;;;6.57;3.25;;;2.20;99.90;;;;;;5095398;28;20044;-87
2023/02/09 10:59:22;;;;;;;7.20;3.95;;;2.30;99.90;;;;;;5095714;28;20036;-86
2023/02/09 11:01:58;;;;;;;12.68;3.67;;;2.20;99.90;;;;;;5094773;28;20450;-86
2023/02/09 11:04:35;;;;;;;9.00;4.38;;;2.40;99.90;;;;;;5095949;28;20119;-87
2023/02/09 11:07:09;;;;;;;8.52;4.35;;;2.30;99.90;;;;;;5094882;28;20066;-87
2023/02/09 11:09:40;;;;;;;8.15;3.55;;;2.50;99.90;;;;;;5088712;28;20044;-86
2023/02/09 11:12:11;;;;;;;11.70;3.78;;;2.30;99.90;;;;;;5075316;28;20104;-87
2023/02/09 11:14:41;;;;;;;9.88;3.83;;;2.30;99.90;;;;;;5075773;28;20048;-86
2023/02/09 11:17:23;;;;;;;8.82;4.18;;;2.40;99.90;;;;;;5059456;28;20044;-87
2023/02/09 11:20:32;;;;;;;6.43;3.95;;;2.40;99.90;;;;;;5075437;28;20496;-85
2023/02/09 11:23:31;;;;;;;9.90;4.40;;;2.50;99.90;;;;;;5063174;28;20412;-87
2023/02/09 11:26:35;;;;;;;8.88;3.92;;;2.60;99.90;;;;;;5112002;28;20040;-86
2023/02/09 11:29:26;;;;;;;10.25;4.30;;;2.70;99.90;;;;;;5095195;28;20093;-86
2023/02/09 11:32:07;;;;;;;8.32;4.00;;;2.80;99.90;;;;;;5095194;28;20040;-86
2023/02/09 11:35:00;;;;;;;11.82;4.80;;;2.90;99.90;;;;;;5075394;28;20544;-86
2023/02/09 11:37:26;;;;;;;8.25;3.97;;;3.00;99.90;;;;;;5074788;28;20069;-87
2023/02/09 11:40:04;;;;;;;10.15;4.30;;;3.00;99.90;;;;;;5074427;28;20470;-86
2023/02/09 11:42:42;;;;;;;9.27;4.88;;;3.00;99.90;;;;;;5076424;28;20115;-86
2023/02/09 11:45:28;;;;;;;7.88;4.07;;;3.50;99.90;;;;;;5092696;28;20459;-86
2023/02/09 11:48:24;;;;;;;8.60;3.42;;;3.60;99.90;;;;;;5094809;28;20043;-87
2023/02/09 11:50:55;;;;;;;9.98;4.35;;;2.90;99.90;;;;;;5094695;28;20446;-86
2023/02/09 11:53:39;;;;;;;12.63;4.97;;;3.00;99.90;;;;;;5094536;28;20407;-86
2023/02/09 11:56:18;;;;;;;8.52;3.60;;;2.90;99.90;;;;;;5093751;28;20044;-86
2023/02/09 11:58:51;;;;;;;8.63;4.40;;;3.00;99.90;;;;;;5094316;28;20032;-85
2023/02/09 12:01:30;;;;;;;7.68;3.45;;;3.00;99.90;;;;;;5094796;28;20066;-86
2023/02/09 12:04:03;;;;;;;18.17;5.28;;;3.20;99.90;;;;;;5085880;28;20036;-87
2023/02/09 12:06:40;;;;;;;8.50;4.28;;;3.10;99.90;;;;;;5074572;28;20117;-86
2023/02/09 12:09:18;;;;;;;9.02;4.50;;;3.50;99.90;;;;;;5101795;28;20032;-86
2023/02/09 12:11:52;;;;;;;8.90;4.00;;;3.20;99.90;;;;;;5085507;28;20052;-85
2023/02/09 12:14:30;;;;;;;8.40;4.38;;;3.30;99.90;;;;;;5088035;28;20040;-86
2023/02/09 12:17:04;;;;;;;10.98;4.03;;;3.20;99.90;;;;;;5080595;28;20123;-86
2023/02/09 12:19:42;;;;;;;9.82;4.80;;;3.30;99.90;;;;;;5092345;28;20048;-87
2023/02/09 12:22:33;;;;;;;10.75;4.53;;;3.40;99.90;;;;;;5087664;28;20047;-86
2023/02/09 12:25:14;;;;;;;12.68;4.85;;;3.40;99.90;;;;;;5091401;28;20044;-86
2023/02/09 12:27:43;;;;;;;9.80;4.32;;;3.40;99.90;;;;;;5110700;28;20515;-85
2023/02/09 12:30:48;;;;;;;9.75;4.50;;;3.50;99.90;;;;;;5078141;28;20097;-86
2023/02/09 12:33:16;;;;;;;11.75;4.45;;;3.50;99.90;;;;;;4993718;28;20538;-86
2023/02/09 12:36:04;;;;;;;8.38;4.85;;;3.50;99.90;;;;;;4993795;28;20042;-86
2023/02/09 12:38:49;;;;;;;14.70;4.53;;;3.50;99.90;;;;;;5061982;28;20110;-87
2023/02/09 12:41:50;;;;;;;11.60;5.15;;;3.60;99.90;;;;;;5073457;28;20079;-86
2023/02/09 12:44:18;;;;;;;9.80;4.85;;;3.60;99.90;;;;;;5073194;28;20040;-87
2023/02/09 12:46:47;;;;;;;11.60;4.75;;;3.90;99.90;;;;;;5073406;28;20045;-85
2023/02/09 12:49:14;;;;;;;13.05;4.75;;;3.60;99.90;;;;;;5072915;28;20040;-87
2023/02/09 12:51:50;;;;;;;10.43;4.50;;;3.90;99.90;;;;;;5089736;28;20049;-86
2023/02/09 12:54:45;;;;;;;9.63;5.05;;;3.60;99.90;;;;;;5077759;28;20515;-86
2023/02/09 12:57:15;;;;;;;10.82;4.68;;;3.60;99.90;;;;;;5081209;28;20067;-87
2023/02/09 13:00:02;;;;;;;15.27;4.47;;;3.60;99.90;;;;;;5078467;28;20123;-87
2023/02/09 13:02:53;;;;;;;8.43;4.65;;;3.60;99.90;;;;;;5084914;28;20593;-86
2023/02/09 13:05:35;;;;;;;11.57;4.40;;;3.60;99.90;;;;;;5077645;28;20047;-84
2023/02/09 13:08:17;;;;;;;8.27;4.03;;;2.80;99.90;;;;;;5076585;28;20033;-86
2023/02/09 13:10:53;;;;;;;11.65;4.82;;;3.60;99.90;;;;;;5093034;28;20039;-86